sensor_id;sensor_type;location;lat;lon;timestamp;P1;durP1;ratioP1;P2;durP2;ratioP2
15261;SDS011;7733;51.554;13.590;2023-09-12T00:01:40;10.10;;;9.30;;
15261;SDS011;7733;51.554;13.590;2023-09-12T00:04:06;8.57;;;7.97;;
15261;SDS011;7733;51.554;13.590;2023-09-12T00:06:32;8.77;;;8.00;;
15261;SDS011;7733;51.554;13.590;2023-09-12T00:08:57;8.83;;;8.17;;
15261;SDS011;7733;51.554;13.590;2023-09-12T00:11:23;8.97;;;8.27;;
15261;SDS011;7733;51.554;13.590;2023-09-12T00:13:50;9.30;;;8.60;;
15261;SDS011;7733;51.554;13.590;2023-09-12T00:16:17;9.00;;;8.20;;
15261;SDS011;7733;51.554;13.590;2023-09-12T00:18:43;9.07;;;8.27;;
15261;SDS011;7733;51.554;13.590;2023-09-12T00:21:09;9.10;;;8.30;;
15261;SDS011;7733;51.554;13.590;2023-09-12T00:23:35;9.60;;;8.90;;
15261;SDS011;7733;51.554;13.590;2023-09-12T00:26:01;10.83;;;9.93;;
15261;SDS011;7733;51.554;13.590;2023-09-12T00:28:27;10.33;;;9.53;;
15261;SDS011;7733;51.554;13.590;2023-09-12T00:30:53;9.00;;;8.40;;
15261;SDS011;7733;51.554;13.590;2023-09-12T00:33:18;8.77;;;8.10;;
15261;SDS011;7733;51.554;13.590;2023-09-12T00:35:44;8.67;;;7.97;;
15261;SDS011;7733;51.554;13.590;2023-09-12T00:38:10;8.27;;;7.67;;
15261;SDS011;7733;51.554;13.590;2023-09-12T00:40:36;9.13;;;8.43;;
15261;SDS011;7733;51.554;13.590;2023-09-12T00:43:02;8.47;;;7.93;;
15261;SDS011;7733;51.554;13.590;2023-09-12T00:45:29;8.87;;;8.23;;
15261;SDS011;7733;51.554;13.590;2023-09-12T00:47:55;9.03;;;8.23;;
15261;SDS011;7733;51.554;13.590;2023-09-12T00:50:26;9.43;;;8.70;;
15261;SDS011;7733;51.554;13.590;2023-09-12T00:52:53;9.33;;;8.63;;
15261;SDS011;7733;51.554;13.590;2023-09-12T00:55:21;9.20;;;8.60;;
15261;SDS011;7733;51.554;13.590;2023-09-12T00:57:47;9.53;;;8.70;;
15261;SDS011;7733;51.554;13.590;2023-09-12T01:00:14;8.97;;;8.37;;
15261;SDS011;7733;51.554;13.590;2023-09-12T01:02:41;9.03;;;8.20;;
15261;SDS011;7733;51.554;13.590;2023-09-12T01:05:09;9.33;;;8.63;;
15261;SDS011;7733;51.554;13.590;2023-09-12T01:07:37;10.07;;;8.60;;
15261;SDS011;7733;51.554;13.590;2023-09-12T01:10:04;9.20;;;8.40;;
15261;SDS011;7733;51.554;13.590;2023-09-12T01:12:31;9.40;;;8.50;;
15261;SDS011;7733;51.554;13.590;2023-09-12T01:14:57;8.93;;;8.43;;
15261;SDS011;7733;51.554;13.590;2023-09-12T01:17:23;9.20;;;8.50;;
15261;SDS011;7733;51.554;13.590;2023-09-12T01:19:49;9.80;;;9.00;;
15261;SDS011;7733;51.554;13.590;2023-09-12T01:22:21;9.27;;;8.50;;
15261;SDS011;7733;51.554;13.590;2023-09-12T01:28:20;9.60;;;8.90;;
15261;SDS011;7733;51.554;13.590;2023-09-12T01:30:50;10.27;;;9.67;;
15261;SDS011;7733;51.554;13.590;2023-09-12T01:33:17;10.47;;;9.60;;
15261;SDS011;7733;51.554;13.590;2023-09-12T01:35:44;11.50;;;10.60;;
15261;SDS011;7733;51.554;13.590;2023-09-12T01:38:11;9.60;;;9.00;;
15261;SDS011;7733;51.554;13.590;2023-09-12T01:40:46;10.60;;;9.87;;
15261;SDS011;7733;51.554;13.590;2023-09-12T01:43:17;10.80;;;9.93;;
15261;SDS011;7733;51.554;13.590;2023-09-12T01:45:47;11.00;;;9.87;;
15261;SDS011;7733;51.554;13.590;2023-09-12T01:48:17;9.60;;;9.00;;
15261;SDS011;7733;51.554;13.590;2023-09-12T01:50:48;10.23;;;9.53;;
15261;SDS011;7733;51.554;13.590;2023-09-12T01:53:15;10.87;;;9.87;;
15261;SDS011;7733;51.554;13.590;2023-09-12T01:55:42;11.70;;;10.70;;
15261;SDS011;7733;51.554;13.590;2023-09-12T01:58:10;11.27;;;10.53;;
15261;SDS011;7733;51.554;13.590;2023-09-12T02:00:37;8.50;;;7.90;;
15261;SDS011;7733;51.554;13.590;2023-09-12T02:03:05;8.27;;;7.67;;
15261;SDS011;7733;51.554;13.590;2023-09-12T02:05:31;8.93;;;8.07;;
15261;SDS011;7733;51.554;13.590;2023-09-12T02:07:58;9.07;;;8.47;;
15261;SDS011;7733;51.554;13.590;2023-09-12T02:10:26;8.53;;;7.90;;
15261;SDS011;7733;51.554;13.590;2023-09-12T02:12:52;8.80;;;8.10;;
15261;SDS011;7733;51.554;13.590;2023-09-12T02:15:18;8.47;;;7.87;;
15261;SDS011;7733;51.554;13.590;2023-09-12T02:17:44;8.00;;;7.50;;
15261;SDS011;7733;51.554;13.590;2023-09-12T02:20:10;7.37;;;6.87;;
15261;SDS011;7733;51.554;13.590;2023-09-12T02:22:36;8.97;;;8.27;;
15261;SDS011;7733;51.554;13.590;2023-09-12T02:25:03;9.00;;;8.30;;
15261;SDS011;7733;51.554;13.590;2023-09-12T02:27:30;8.30;;;7.70;;
15261;SDS011;7733;51.554;13.590;2023-09-12T02:29:56;8.23;;;7.60;;
15261;SDS011;7733;51.554;13.590;2023-09-12T02:32:22;8.77;;;8.10;;
15261;SDS011;7733;51.554;13.590;2023-09-12T02:34:48;8.73;;;8.03;;
15261;SDS011;7733;51.554;13.590;2023-09-12T02:37:13;8.20;;;7.70;;
15261;SDS011;7733;51.554;13.590;2023-09-12T02:39:40;7.10;;;6.63;;
15261;SDS011;7733;51.554;13.590;2023-09-12T02:42:06;7.67;;;7.27;;
15261;SDS011;7733;51.554;13.590;2023-09-12T02:44:32;8.13;;;7.53;;
15261;SDS011;7733;51.554;13.590;2023-09-12T02:46:57;7.80;;;7.20;;
15261;SDS011;7733;51.554;13.590;2023-09-12T02:49:23;8.43;;;7.73;;
15261;SDS011;7733;51.554;13.590;2023-09-12T02:51:49;7.90;;;7.30;;
15261;SDS011;7733;51.554;13.590;2023-09-12T02:54:14;8.93;;;8.33;;
15261;SDS011;7733;51.554;13.590;2023-09-12T02:56:40;8.13;;;7.63;;
15261;SDS011;7733;51.554;13.590;2023-09-12T02:59:06;8.77;;;7.97;;
15261;SDS011;7733;51.554;13.590;2023-09-12T03:01:32;7.50;;;7.10;;
15261;SDS011;7733;51.554;13.590;2023-09-12T03:03:57;8.23;;;7.43;;
15261;SDS011;7733;51.554;13.590;2023-09-12T03:06:23;7.83;;;7.20;;
15261;SDS011;7733;51.554;13.590;2023-09-12T03:08:49;8.80;;;8.10;;
15261;SDS011;7733;51.554;13.590;2023-09-12T03:11:15;8.90;;;8.10;;
15261;SDS011;7733;51.554;13.590;2023-09-12T03:13:41;8.70;;;8.00;;
15261;SDS011;7733;51.554;13.590;2023-09-12T03:16:13;9.33;;;8.53;;
15261;SDS011;7733;51.554;13.590;2023-09-12T03:18:39;8.40;;;7.90;;
15261;SDS011;7733;51.554;13.590;2023-09-12T03:21:06;8.87;;;8.27;;
15261;SDS011;7733;51.554;13.590;2023-09-12T03:23:32;8.50;;;7.90;;
15261;SDS011;7733;51.554;13.590;2023-09-12T03:26:05;8.50;;;7.87;;
15261;SDS011;7733;51.554;13.590;2023-09-12T03:28:31;7.37;;;6.77;;
15261;SDS011;7733;51.554;13.590;2023-09-12T03:31:05;7.70;;;7.00;;
15261;SDS011;7733;51.554;13.590;2023-09-12T03:33:39;8.37;;;7.77;;
15261;SDS011;7733;51.554;13.590;2023-09-12T03:36:06;9.70;;;8.80;;
15261;SDS011;7733;51.554;13.590;2023-09-12T03:38:34;8.00;;;7.43;;
15261;SDS011;7733;51.554;13.590;2023-09-12T03:41:00;7.97;;;7.37;;
15261;SDS011;7733;51.554;13.590;2023-09-12T03:43:26;8.30;;;7.70;;
15261;SDS011;7733;51.554;13.590;2023-09-12T03:45:53;9.13;;;8.20;;
15261;SDS011;7733;51.554;13.590;2023-09-12T03:48:19;8.67;;;7.93;;
15261;SDS011;7733;51.554;13.590;2023-09-12T03:50:45;8.37;;;7.77;;
15261;SDS011;7733;51.554;13.590;2023-09-12T03:53:11;8.00;;;7.43;;
15261;SDS011;7733;51.554;13.590;2023-09-12T03:55:41;8.77;;;8.10;;
15261;SDS011;7733;51.554;13.590;2023-09-12T03:58:07;8.73;;;7.50;;
15261;SDS011;7733;51.554;13.590;2023-09-12T04:00:33;8.70;;;7.90;;
15261;SDS011;7733;51.554;13.590;2023-09-12T04:02:59;8.27;;;7.63;;
15261;SDS011;7733;51.554;13.590;2023-09-12T04:05:25;8.50;;;7.77;;
15261;SDS011;7733;51.554;13.590;2023-09-12T04:07:51;8.07;;;7.30;;
15261;SDS011;7733;51.554;13.590;2023-09-12T04:10:18;7.43;;;6.80;;
15261;SDS011;7733;51.554;13.590;2023-09-12T04:12:45;7.13;;;6.63;;
15261;SDS011;7733;51.554;13.590;2023-09-12T04:15:11;7.87;;;7.17;;
15261;SDS011;7733;51.554;13.590;2023-09-12T04:17:37;7.37;;;6.67;;
15261;SDS011;7733;51.554;13.590;2023-09-12T04:20:02;6.90;;;6.50;;
15261;SDS011;7733;51.554;13.590;2023-09-12T04:22:32;6.70;;;6.20;;
15261;SDS011;7733;51.554;13.590;2023-09-12T04:24:58;7.80;;;7.23;;
15261;SDS011;7733;51.554;13.590;2023-09-12T04:27:24;8.00;;;7.30;;
15261;SDS011;7733;51.554;13.590;2023-09-12T04:29:50;7.30;;;6.87;;
15261;SDS011;7733;51.554;13.590;2023-09-12T04:32:15;7.70;;;7.20;;
15261;SDS011;7733;51.554;13.590;2023-09-12T04:34:48;8.03;;;7.43;;
15261;SDS011;7733;51.554;13.590;2023-09-12T04:37:14;7.70;;;7.20;;
15261;SDS011;7733;51.554;13.590;2023-09-12T04:39:40;8.57;;;7.73;;
15261;SDS011;7733;51.554;13.590;2023-09-12T04:42:06;8.57;;;7.97;;
15261;SDS011;7733;51.554;13.590;2023-09-12T04:44:41;8.33;;;7.70;;
15261;SDS011;7733;51.554;13.590;2023-09-12T04:47:07;8.97;;;8.07;;
15261;SDS011;7733;51.554;13.590;2023-09-12T04:49:34;8.23;;;7.83;;
15261;SDS011;7733;51.554;13.590;2023-09-12T04:52:00;8.33;;;7.67;;
15261;SDS011;7733;51.554;13.590;2023-09-12T04:54:26;9.23;;;8.50;;
15261;SDS011;7733;51.554;13.590;2023-09-12T04:56:52;8.27;;;7.73;;
15261;SDS011;7733;51.554;13.590;2023-09-12T04:59:18;8.80;;;7.93;;
15261;SDS011;7733;51.554;13.590;2023-09-12T05:01:43;8.83;;;8.30;;
15261;SDS011;7733;51.554;13.590;2023-09-12T05:04:09;11.03;;;7.50;;
15261;SDS011;7733;51.554;13.590;2023-09-12T05:06:35;7.73;;;6.87;;
15261;SDS011;7733;51.554;13.590;2023-09-12T05:09:01;7.93;;;7.13;;
15261;SDS011;7733;51.554;13.590;2023-09-12T05:11:28;7.67;;;6.80;;
15261;SDS011;7733;51.554;13.590;2023-09-12T05:13:53;7.40;;;6.70;;
15261;SDS011;7733;51.554;13.590;2023-09-12T05:16:20;7.20;;;6.60;;
15261;SDS011;7733;51.554;13.590;2023-09-12T05:18:45;8.80;;;8.07;;
15261;SDS011;7733;51.554;13.590;2023-09-12T05:21:11;9.20;;;8.50;;
15261;SDS011;7733;51.554;13.590;2023-09-12T05:23:37;8.73;;;8.00;;
15261;SDS011;7733;51.554;13.590;2023-09-12T05:26:03;8.40;;;7.20;;
15261;SDS011;7733;51.554;13.590;2023-09-12T05:28:28;8.30;;;7.43;;
15261;SDS011;7733;51.554;13.590;2023-09-12T05:30:54;7.17;;;6.57;;
15261;SDS011;7733;51.554;13.590;2023-09-12T05:33:20;7.03;;;6.53;;
15261;SDS011;7733;51.554;13.590;2023-09-12T05:35:45;6.17;;;5.60;;
15261;SDS011;7733;51.554;13.590;2023-09-12T05:38:11;6.83;;;5.97;;
15261;SDS011;7733;51.554;13.590;2023-09-12T05:40:37;6.53;;;5.90;;
15261;SDS011;7733;51.554;13.590;2023-09-12T05:43:03;7.10;;;6.60;;
15261;SDS011;7733;51.554;13.590;2023-09-12T05:45:29;7.93;;;7.53;;
15261;SDS011;7733;51.554;13.590;2023-09-12T05:47:57;7.87;;;7.23;;
15261;SDS011;7733;51.554;13.590;2023-09-12T05:50:24;8.43;;;7.67;;
15261;SDS011;7733;51.554;13.590;2023-09-12T05:52:49;9.00;;;8.07;;
15261;SDS011;7733;51.554;13.590;2023-09-12T05:55:16;7.93;;;7.20;;
15261;SDS011;7733;51.554;13.590;2023-09-12T05:57:42;7.57;;;6.97;;
15261;SDS011;7733;51.554;13.590;2023-09-12T06:00:09;6.97;;;6.43;;
15261;SDS011;7733;51.554;13.590;2023-09-12T06:02:37;7.77;;;6.97;;
15261;SDS011;7733;51.554;13.590;2023-09-12T06:05:04;7.67;;;6.93;;
15261;SDS011;7733;51.554;13.590;2023-09-12T06:07:31;8.10;;;7.30;;
15261;SDS011;7733;51.554;13.590;2023-09-12T06:09:57;8.07;;;7.30;;
15261;SDS011;7733;51.554;13.590;2023-09-12T06:12:23;8.87;;;8.17;;
15261;SDS011;7733;51.554;13.590;2023-09-12T06:14:49;9.63;;;8.67;;
15261;SDS011;7733;51.554;13.590;2023-09-12T06:17:18;9.17;;;8.37;;
15261;SDS011;7733;51.554;13.590;2023-09-12T06:19:44;8.97;;;8.07;;
15261;SDS011;7733;51.554;13.590;2023-09-12T06:22:09;9.43;;;8.13;;
15261;SDS011;7733;51.554;13.590;2023-09-12T06:24:35;10.20;;;8.77;;
15261;SDS011;7733;51.554;13.590;2023-09-12T06:27:01;8.23;;;7.73;;
15261;SDS011;7733;51.554;13.590;2023-09-12T06:29:27;9.20;;;8.47;;
15261;SDS011;7733;51.554;13.590;2023-09-12T06:31:52;8.90;;;8.20;;
15261;SDS011;7733;51.554;13.590;2023-09-12T06:34:19;9.83;;;8.70;;
15261;SDS011;7733;51.554;13.590;2023-09-12T06:36:45;9.90;;;8.70;;
15261;SDS011;7733;51.554;13.590;2023-09-12T06:39:11;10.07;;;9.10;;
15261;SDS011;7733;51.554;13.590;2023-09-12T06:41:37;10.67;;;8.60;;
15261;SDS011;7733;51.554;13.590;2023-09-12T06:44:03;9.57;;;8.83;;
15261;SDS011;7733;51.554;13.590;2023-09-12T06:46:30;9.97;;;9.07;;
15261;SDS011;7733;51.554;13.590;2023-09-12T06:48:56;8.90;;;8.13;;
15261;SDS011;7733;51.554;13.590;2023-09-12T06:51:24;9.77;;;8.80;;
15261;SDS011;7733;51.554;13.590;2023-09-12T06:53:51;9.53;;;8.67;;
15261;SDS011;7733;51.554;13.590;2023-09-12T06:56:17;10.27;;;9.47;;
15261;SDS011;7733;51.554;13.590;2023-09-12T06:58:43;10.03;;;9.37;;
15261;SDS011;7733;51.554;13.590;2023-09-12T07:01:08;11.07;;;10.07;;
15261;SDS011;7733;51.554;13.590;2023-09-12T07:03:35;11.63;;;10.53;;
15261;SDS011;7733;51.554;13.590;2023-09-12T07:06:02;10.67;;;9.97;;
15261;SDS011;7733;51.554;13.590;2023-09-12T07:08:29;11.07;;;10.00;;
15261;SDS011;7733;51.554;13.590;2023-09-12T07:10:56;10.70;;;9.90;;
15261;SDS011;7733;51.554;13.590;2023-09-12T07:13:22;13.70;;;10.13;;
15261;SDS011;7733;51.554;13.590;2023-09-12T07:15:51;10.23;;;9.53;;
15261;SDS011;7733;51.554;13.590;2023-09-12T07:18:17;11.23;;;10.13;;
15261;SDS011;7733;51.554;13.590;2023-09-12T07:20:45;10.50;;;9.63;;
15261;SDS011;7733;51.554;13.590;2023-09-12T07:23:11;10.27;;;9.27;;
15261;SDS011;7733;51.554;13.590;2023-09-12T07:25:40;9.30;;;8.60;;
15261;SDS011;7733;51.554;13.590;2023-09-12T07:28:09;9.30;;;8.60;;
15261;SDS011;7733;51.554;13.590;2023-09-12T07:30:36;8.50;;;7.70;;
15261;SDS011;7733;51.554;13.590;2023-09-12T07:33:03;8.03;;;7.43;;
15261;SDS011;7733;51.554;13.590;2023-09-12T07:35:29;7.83;;;7.20;;
15261;SDS011;7733;51.554;13.590;2023-09-12T07:37:55;7.47;;;6.97;;
15261;SDS011;7733;51.554;13.590;2023-09-12T07:40:22;7.10;;;6.50;;
15261;SDS011;7733;51.554;13.590;2023-09-12T07:42:47;6.90;;;6.40;;
15261;SDS011;7733;51.554;13.590;2023-09-12T07:45:13;7.00;;;6.40;;
15261;SDS011;7733;51.554;13.590;2023-09-12T07:47:39;7.00;;;6.50;;
15261;SDS011;7733;51.554;13.590;2023-09-12T07:50:05;7.10;;;6.50;;
15261;SDS011;7733;51.554;13.590;2023-09-12T07:52:32;6.87;;;6.37;;
15261;SDS011;7733;51.554;13.590;2023-09-12T07:55:01;6.70;;;6.20;;
15261;SDS011;7733;51.554;13.590;2023-09-12T07:57:28;7.03;;;6.50;;
15261;SDS011;7733;51.554;13.590;2023-09-12T07:59:58;6.57;;;6.17;;
15261;SDS011;7733;51.554;13.590;2023-09-12T08:02:23;6.43;;;5.93;;
15261;SDS011;7733;51.554;13.590;2023-09-12T08:04:49;6.73;;;6.10;;
15261;SDS011;7733;51.554;13.590;2023-09-12T08:07:16;6.60;;;6.00;;
15261;SDS011;7733;51.554;13.590;2023-09-12T08:12:24;7.23;;;5.80;;
15261;SDS011;7733;51.554;13.590;2023-09-12T08:14:52;7.37;;;5.80;;
15261;SDS011;7733;51.554;13.590;2023-09-12T08:17:19;7.67;;;6.03;;
15261;SDS011;7733;51.554;13.590;2023-09-12T08:19:45;5.57;;;5.07;;
15261;SDS011;7733;51.554;13.590;2023-09-12T08:22:11;6.43;;;5.80;;
15261;SDS011;7733;51.554;13.590;2023-09-12T08:24:38;6.80;;;5.63;;
15261;SDS011;7733;51.554;13.590;2023-09-12T08:27:06;7.43;;;5.77;;
15261;SDS011;7733;51.554;13.590;2023-09-12T08:29:34;6.10;;;5.43;;
15261;SDS011;7733;51.554;13.590;2023-09-12T08:32:00;6.10;;;5.40;;
15261;SDS011;7733;51.554;13.590;2023-09-12T08:34:26;6.17;;;5.57;;
15261;SDS011;7733;51.554;13.590;2023-09-12T08:36:52;5.37;;;5.00;;
15261;SDS011;7733;51.554;13.590;2023-09-12T08:39:38;7.20;;;5.50;;
15261;SDS011;7733;51.554;13.590;2023-09-12T08:42:11;11.13;;;5.50;;
15261;SDS011;7733;51.554;13.590;2023-09-12T08:44:41;7.97;;;5.33;;
15261;SDS011;7733;51.554;13.590;2023-09-12T08:47:08;5.40;;;4.80;;
15261;SDS011;7733;51.554;13.590;2023-09-12T08:49:36;6.80;;;5.33;;
15261;SDS011;7733;51.554;13.590;2023-09-12T08:52:02;5.50;;;5.00;;
15261;SDS011;7733;51.554;13.590;2023-09-12T08:54:30;8.50;;;4.50;;
15261;SDS011;7733;51.554;13.590;2023-09-12T08:56:57;15.13;;;5.27;;
15261;SDS011;7733;51.554;13.590;2023-09-12T08:59:26;5.27;;;4.80;;
15261;SDS011;7733;51.554;13.590;2023-09-12T09:01:52;5.83;;;4.50;;
15261;SDS011;7733;51.554;13.590;2023-09-12T09:04:22;10.00;;;5.47;;
15261;SDS011;7733;51.554;13.590;2023-09-12T09:06:51;6.97;;;4.87;;
15261;SDS011;7733;51.554;13.590;2023-09-12T09:09:19;7.07;;;5.07;;
15261;SDS011;7733;51.554;13.590;2023-09-12T09:11:46;8.30;;;4.33;;
15261;SDS011;7733;51.554;13.590;2023-09-12T09:14:13;8.07;;;4.57;;
15261;SDS011;7733;51.554;13.590;2023-09-12T09:16:39;6.27;;;4.23;;
15261;SDS011;7733;51.554;13.590;2023-09-12T09:19:05;10.17;;;4.60;;
15261;SDS011;7733;51.554;13.590;2023-09-12T09:21:34;8.17;;;4.83;;
15261;SDS011;7733;51.554;13.590;2023-09-12T09:24:04;5.90;;;4.23;;
15261;SDS011;7733;51.554;13.590;2023-09-12T09:26:40;8.63;;;4.40;;
15261;SDS011;7733;51.554;13.590;2023-09-12T09:29:08;8.00;;;4.27;;
15261;SDS011;7733;51.554;13.590;2023-09-12T09:31:41;6.57;;;4.27;;
15261;SDS011;7733;51.554;13.590;2023-09-12T09:34:12;5.50;;;4.53;;
15261;SDS011;7733;51.554;13.590;2023-09-12T09:39:20;7.30;;;4.40;;
15261;SDS011;7733;51.554;13.590;2023-09-12T09:41:49;8.93;;;4.60;;
15261;SDS011;7733;51.554;13.590;2023-09-12T09:44:17;7.40;;;4.00;;
15261;SDS011;7733;51.554;13.590;2023-09-12T09:46:44;6.47;;;4.50;;
15261;SDS011;7733;51.554;13.590;2023-09-12T09:49:14;10.20;;;4.77;;
15261;SDS011;7733;51.554;13.590;2023-09-12T09:51:41;8.80;;;4.50;;
15261;SDS011;7733;51.554;13.590;2023-09-12T09:54:08;6.97;;;4.60;;
15261;SDS011;7733;51.554;13.590;2023-09-12T09:56:44;7.37;;;4.20;;
15261;SDS011;7733;51.554;13.590;2023-09-12T09:59:11;9.43;;;4.20;;
15261;SDS011;7733;51.554;13.590;2023-09-12T10:01:41;10.07;;;4.50;;
15261;SDS011;7733;51.554;13.590;2023-09-12T10:04:09;6.53;;;4.00;;
15261;SDS011;7733;51.554;13.590;2023-09-12T10:06:35;9.17;;;4.23;;
15261;SDS011;7733;51.554;13.590;2023-09-12T10:09:09;7.27;;;4.07;;
15261;SDS011;7733;51.554;13.590;2023-09-12T10:11:37;8.13;;;3.83;;
15261;SDS011;7733;51.554;13.590;2023-09-12T10:14:05;14.23;;;4.30;;
15261;SDS011;7733;51.554;13.590;2023-09-12T10:16:33;11.93;;;4.43;;
15261;SDS011;7733;51.554;13.590;2023-09-12T10:24:46;8.33;;;4.40;;
15261;SDS011;7733;51.554;13.590;2023-09-12T10:27:15;9.37;;;4.00;;
15261;SDS011;7733;51.554;13.590;2023-09-12T10:29:44;8.73;;;3.67;;
15261;SDS011;7733;51.554;13.590;2023-09-12T10:32:12;7.93;;;4.00;;
15261;SDS011;7733;51.554;13.590;2023-09-12T10:34:40;9.07;;;3.67;;
15261;SDS011;7733;51.554;13.590;2023-09-12T10:37:10;7.60;;;3.77;;
15261;SDS011;7733;51.554;13.590;2023-09-12T10:39:41;8.10;;;3.60;;
15261;SDS011;7733;51.554;13.590;2023-09-12T10:42:09;10.03;;;4.23;;
15261;SDS011;7733;51.554;13.590;2023-09-12T10:44:37;11.27;;;4.10;;
15261;SDS011;7733;51.554;13.590;2023-09-12T10:47:04;11.50;;;3.87;;
15261;SDS011;7733;51.554;13.590;2023-09-12T10:49:31;8.07;;;4.10;;
15261;SDS011;7733;51.554;13.590;2023-09-12T10:51:57;9.23;;;4.30;;
15261;SDS011;7733;51.554;13.590;2023-09-12T10:54:24;8.37;;;4.00;;
15261;SDS011;7733;51.554;13.590;2023-09-12T10:57:03;12.87;;;4.23;;
15261;SDS011;7733;51.554;13.590;2023-09-12T11:02:41;14.23;;;4.53;;
15261;SDS011;7733;51.554;13.590;2023-09-12T11:05:54;9.30;;;4.30;;
15261;SDS011;7733;51.554;13.590;2023-09-12T11:08:00;10.73;;;4.47;;
15261;SDS011;7733;51.554;13.590;2023-09-12T11:10:29;8.33;;;4.27;;
15261;SDS011;7733;51.554;13.590;2023-09-12T11:12:59;9.80;;;4.00;;
15261;SDS011;7733;51.554;13.590;2023-09-12T11:15:26;7.77;;;4.37;;
15261;SDS011;7733;51.554;13.590;2023-09-12T11:18:03;12.50;;;4.63;;
15261;SDS011;7733;51.554;13.590;2023-09-12T11:23:23;11.23;;;4.43;;
15261;SDS011;7733;51.554;13.590;2023-09-12T11:26:11;9.17;;;4.57;;
15261;SDS011;7733;51.554;13.590;2023-09-12T11:28:38;12.73;;;4.80;;
15261;SDS011;7733;51.554;13.590;2023-09-12T11:31:04;13.13;;;4.53;;
15261;SDS011;7733;51.554;13.590;2023-09-12T11:33:31;11.00;;;4.90;;
15261;SDS011;7733;51.554;13.590;2023-09-12T11:35:58;8.93;;;4.87;;
15261;SDS011;7733;51.554;13.590;2023-09-12T11:38:27;8.17;;;4.30;;
15261;SDS011;7733;51.554;13.590;2023-09-12T11:40:55;11.00;;;4.97;;
15261;SDS011;7733;51.554;13.590;2023-09-12T11:43:22;12.70;;;4.47;;
15261;SDS011;7733;51.554;13.590;2023-09-12T11:45:51;13.80;;;4.73;;
15261;SDS011;7733;51.554;13.590;2023-09-12T11:48:19;7.47;;;4.90;;
15261;SDS011;7733;51.554;13.590;2023-09-12T11:50:55;10.10;;;4.13;;
15261;SDS011;7733;51.554;13.590;2023-09-12T11:53:23;10.27;;;4.50;;
15261;SDS011;7733;51.554;13.590;2023-09-12T11:55:55;10.60;;;4.63;;
15261;SDS011;7733;51.554;13.590;2023-09-12T11:58:24;12.70;;;4.70;;
15261;SDS011;7733;51.554;13.590;2023-09-12T12:00:55;13.40;;;4.40;;
15261;SDS011;7733;51.554;13.590;2023-09-12T12:03:24;11.27;;;4.70;;
15261;SDS011;7733;51.554;13.590;2023-09-12T12:05:52;7.93;;;4.20;;
15261;SDS011;7733;51.554;13.590;2023-09-12T12:08:20;7.53;;;4.10;;
15261;SDS011;7733;51.554;13.590;2023-09-12T12:10:50;16.00;;;4.90;;
15261;SDS011;7733;51.554;13.590;2023-09-12T12:13:17;11.80;;;4.40;;
15261;SDS011;7733;51.554;13.590;2023-09-12T12:15:44;9.77;;;4.07;;
15261;SDS011;7733;51.554;13.590;2023-09-12T12:18:10;12.90;;;4.40;;
15261;SDS011;7733;51.554;13.590;2023-09-12T12:20:36;10.10;;;4.10;;
15261;SDS011;7733;51.554;13.590;2023-09-12T12:23:02;7.87;;;4.53;;
15261;SDS011;7733;51.554;13.590;2023-09-12T12:25:31;10.03;;;4.53;;
15261;SDS011;7733;51.554;13.590;2023-09-12T12:28:01;9.53;;;4.40;;
15261;SDS011;7733;51.554;13.590;2023-09-12T12:30:34;11.90;;;4.43;;
15261;SDS011;7733;51.554;13.590;2023-09-12T12:33:02;8.53;;;4.40;;
15261;SDS011;7733;51.554;13.590;2023-09-12T12:35:33;6.20;;;3.60;;
15261;SDS011;7733;51.554;13.590;2023-09-12T12:38:01;11.83;;;4.70;;
15261;SDS011;7733;51.554;13.590;2023-09-12T12:40:26;10.00;;;4.70;;
15261;SDS011;7733;51.554;13.590;2023-09-12T12:42:52;11.13;;;4.30;;
15261;SDS011;7733;51.554;13.590;2023-09-12T12:45:19;7.60;;;4.27;;
15261;SDS011;7733;51.554;13.590;2023-09-12T12:47:54;9.07;;;4.40;;
15261;SDS011;7733;51.554;13.590;2023-09-12T12:50:26;8.07;;;4.37;;
15261;SDS011;7733;51.554;13.590;2023-09-12T12:52:52;8.47;;;4.03;;
15261;SDS011;7733;51.554;13.590;2023-09-12T12:55:20;9.07;;;4.10;;
15261;SDS011;7733;51.554;13.590;2023-09-12T12:57:47;7.43;;;3.93;;
15261;SDS011;7733;51.554;13.590;2023-09-12T13:00:14;13.00;;;4.40;;
15261;SDS011;7733;51.554;13.590;2023-09-12T13:02:43;10.27;;;4.20;;
15261;SDS011;7733;51.554;13.590;2023-09-12T13:08:06;13.13;;;4.23;;
15261;SDS011;7733;51.554;13.590;2023-09-12T13:10:32;10.20;;;4.10;;
15261;SDS011;7733;51.554;13.590;2023-09-12T13:12:58;8.20;;;4.40;;
15261;SDS011;7733;51.554;13.590;2023-09-12T13:15:24;6.70;;;4.17;;
15261;SDS011;7733;51.554;13.590;2023-09-12T13:17:49;11.83;;;4.43;;
15261;SDS011;7733;51.554;13.590;2023-09-12T13:20:15;9.37;;;4.50;;
15261;SDS011;7733;51.554;13.590;2023-09-12T13:22:41;8.50;;;4.13;;
15261;SDS011;7733;51.554;13.590;2023-09-12T13:25:08;7.57;;;3.80;;
15261;SDS011;7733;51.554;13.590;2023-09-12T13:27:34;9.43;;;4.47;;
15261;SDS011;7733;51.554;13.590;2023-09-12T13:30:00;12.53;;;4.33;;
15261;SDS011;7733;51.554;13.590;2023-09-12T13:32:26;11.40;;;4.10;;
15261;SDS011;7733;51.554;13.590;2023-09-12T13:34:52;12.63;;;4.70;;
15261;SDS011;7733;51.554;13.590;2023-09-12T13:37:18;8.27;;;4.47;;
15261;SDS011;7733;51.554;13.590;2023-09-12T13:39:44;11.23;;;4.50;;
15261;SDS011;7733;51.554;13.590;2023-09-12T13:42:13;10.33;;;4.47;;
15261;SDS011;7733;51.554;13.590;2023-09-12T13:44:43;6.17;;;3.80;;
15261;SDS011;7733;51.554;13.590;2023-09-12T13:47:09;10.50;;;4.00;;
15261;SDS011;7733;51.554;13.590;2023-09-12T13:49:35;9.00;;;4.27;;
15261;SDS011;7733;51.554;13.590;2023-09-12T13:52:01;11.20;;;4.33;;
15261;SDS011;7733;51.554;13.590;2023-09-12T13:54:27;8.83;;;4.30;;
15261;SDS011;7733;51.554;13.590;2023-09-12T13:56:53;10.67;;;4.43;;
15261;SDS011;7733;51.554;13.590;2023-09-12T13:59:19;7.87;;;4.43;;
15261;SDS011;7733;51.554;13.590;2023-09-12T14:01:47;10.53;;;4.60;;
15261;SDS011;7733;51.554;13.590;2023-09-12T14:04:13;8.23;;;4.00;;
15261;SDS011;7733;51.554;13.590;2023-09-12T14:06:39;12.13;;;4.73;;
15261;SDS011;7733;51.554;13.590;2023-09-12T14:09:05;10.73;;;4.43;;
15261;SDS011;7733;51.554;13.590;2023-09-12T14:11:31;13.13;;;4.70;;
15261;SDS011;7733;51.554;13.590;2023-09-12T14:13:56;11.03;;;4.80;;
15261;SDS011;7733;51.554;13.590;2023-09-12T14:16:22;8.43;;;4.70;;
15261;SDS011;7733;51.554;13.590;2023-09-12T14:18:48;9.07;;;4.70;;
15261;SDS011;7733;51.554;13.590;2023-09-12T14:21:13;8.70;;;4.70;;
15261;SDS011;7733;51.554;13.590;2023-09-12T14:23:39;10.60;;;4.87;;
15261;SDS011;7733;51.554;13.590;2023-09-12T14:26:05;11.90;;;4.77;;
15261;SDS011;7733;51.554;13.590;2023-09-12T14:28:30;7.97;;;4.17;;
15261;SDS011;7733;51.554;13.590;2023-09-12T14:30:59;13.13;;;4.83;;
15261;SDS011;7733;51.554;13.590;2023-09-12T14:33:25;13.37;;;6.93;;
15261;SDS011;7733;51.554;13.590;2023-09-12T14:35:51;13.37;;;5.30;;
15261;SDS011;7733;51.554;13.590;2023-09-12T14:38:17;8.83;;;4.63;;
15261;SDS011;7733;51.554;13.590;2023-09-12T14:40:42;10.07;;;4.33;;
15261;SDS011;7733;51.554;13.590;2023-09-12T14:43:08;9.67;;;4.60;;
15261;SDS011;7733;51.554;13.590;2023-09-12T14:45:34;10.77;;;4.30;;
15261;SDS011;7733;51.554;13.590;2023-09-12T14:48:00;8.23;;;4.20;;
15261;SDS011;7733;51.554;13.590;2023-09-12T14:50:25;12.03;;;5.50;;
15261;SDS011;7733;51.554;13.590;2023-09-12T14:52:54;9.30;;;4.93;;
15261;SDS011;7733;51.554;13.590;2023-09-12T14:55:21;10.13;;;4.53;;
15261;SDS011;7733;51.554;13.590;2023-09-12T14:57:47;11.53;;;4.80;;
15261;SDS011;7733;51.554;13.590;2023-09-12T15:00:13;12.43;;;5.37;;
15261;SDS011;7733;51.554;13.590;2023-09-12T15:02:40;12.77;;;5.17;;
15261;SDS011;7733;51.554;13.590;2023-09-12T15:05:07;7.83;;;4.80;;
15261;SDS011;7733;51.554;13.590;2023-09-12T15:07:34;12.60;;;4.60;;